sensor_id;sensor_type;location;lat;lon;timestamp;temperature;humidity
680;DHT22;322;48.846;9.230;2023-06-22T00:01:26;20.20;99.90
680;DHT22;322;48.846;9.230;2023-06-22T00:03:54;20.20;99.90
680;DHT22;322;48.846;9.230;2023-06-22T00:06:23;20.10;99.90
680;DHT22;322;48.846;9.230;2023-06-22T00:08:51;20.00;99.90
680;DHT22;322;48.846;9.230;2023-06-22T00:11:19;20.00;99.90
680;DHT22;322;48.846;9.230;2023-06-22T00:13:47;20.00;99.90
680;DHT22;322;48.846;9.230;2023-06-22T00:16:17;19.90;99.90
680;DHT22;322;48.846;9.230;2023-06-22T00:18:45;20.00;99.90
680;DHT22;322;48.846;9.230;2023-06-22T00:21:14;19.90;99.90
680;DHT22;322;48.846;9.230;2023-06-22T00:23:42;19.80;99.90
680;DHT22;322;48.846;9.230;2023-06-22T00:26:10;19.70;99.90
680;DHT22;322;48.846;9.230;2023-06-22T00:28:39;19.60;99.90
680;DHT22;322;48.846;9.230;2023-06-22T00:31:07;19.60;99.90
680;DHT22;322;48.846;9.230;2023-06-22T00:33:36;19.60;99.90
680;DHT22;322;48.846;9.230;2023-06-22T00:36:05;19.60;99.90
680;DHT22;322;48.846;9.230;2023-06-22T00:38:34;19.50;99.90
680;DHT22;322;48.846;9.230;2023-06-22T00:41:05;19.40;99.90
680;DHT22;322;48.846;9.230;2023-06-22T00:43:33;19.30;99.90
680;DHT22;322;48.846;9.230;2023-06-22T00:46:01;19.30;99.90
680;DHT22;322;48.846;9.230;2023-06-22T00:48:29;19.30;99.90
680;DHT22;322;48.846;9.230;2023-06-22T00:50:59;19.40;99.90
680;DHT22;322;48.846;9.230;2023-06-22T00:53:27;19.30;99.90
680;DHT22;322;48.846;9.230;2023-06-22T00:55:55;19.30;99.90
680;DHT22;322;48.846;9.230;2023-06-22T00:58:26;19.30;99.90
680;DHT22;322;48.846;9.230;2023-06-22T01:00:54;19.30;99.90
680;DHT22;322;48.846;9.230;2023-06-22T01:03:22;19.40;99.90
680;DHT22;322;48.846;9.230;2023-06-22T01:05:51;19.40;99.90
680;DHT22;322;48.846;9.230;2023-06-22T01:08:31;19.40;99.90
680;DHT22;322;48.846;9.230;2023-06-22T01:11:08;19.30;99.90
680;DHT22;322;48.846;9.230;2023-06-22T01:13:44;19.30;99.90
680;DHT22;322;48.846;9.230;2023-06-22T01:16:17;19.40;99.90
680;DHT22;322;48.846;9.230;2023-06-22T01:18:52;19.40;99.90
680;DHT22;322;48.846;9.230;2023-06-22T01:21:22;19.40;99.90
680;DHT22;322;48.846;9.230;2023-06-22T01:24:01;19.30;99.90
680;DHT22;322;48.846;9.230;2023-06-22T01:26:42;19.40;99.90
680;DHT22;322;48.846;9.230;2023-06-22T01:29:12;19.40;99.90
680;DHT22;322;48.846;9.230;2023-06-22T01:31:43;19.30;99.90
680;DHT22;322;48.846;9.230;2023-06-22T01:34:12;19.20;99.90
680;DHT22;322;48.846;9.230;2023-06-22T01:36:42;19.10;99.90
680;DHT22;322;48.846;9.230;2023-06-22T01:39:11;19.20;99.90
680;DHT22;322;48.846;9.230;2023-06-22T01:41:40;19.20;99.90
680;DHT22;322;48.846;9.230;2023-06-22T01:44:09;19.10;99.90
680;DHT22;322;48.846;9.230;2023-06-22T01:46:39;19.10;99.90
680;DHT22;322;48.846;9.230;2023-06-22T01:49:08;19.10;99.90
680;DHT22;322;48.846;9.230;2023-06-22T01:51:36;19.00;99.90
680;DHT22;322;48.846;9.230;2023-06-22T01:54:06;19.00;99.90
680;DHT22;322;48.846;9.230;2023-06-22T01:56:34;19.00;99.90
680;DHT22;322;48.846;9.230;2023-06-22T01:59:07;18.90;99.90
680;DHT22;322;48.846;9.230;2023-06-22T02:01:43;18.80;99.90
680;DHT22;322;48.846;9.230;2023-06-22T02:04:13;18.80;99.90
680;DHT22;322;48.846;9.230;2023-06-22T02:06:45;18.70;99.90
680;DHT22;322;48.846;9.230;2023-06-22T02:09:16;18.70;99.90
680;DHT22;322;48.846;9.230;2023-06-22T02:11:46;18.80;99.90
680;DHT22;322;48.846;9.230;2023-06-22T02:14:15;18.80;99.90
680;DHT22;322;48.846;9.230;2023-06-22T02:16:47;18.80;99.90
680;DHT22;322;48.846;9.230;2023-06-22T02:19:15;18.90;99.90
680;DHT22;322;48.846;9.230;2023-06-22T02:21:45;18.90;99.90
680;DHT22;322;48.846;9.230;2023-06-22T02:24:13;18.90;99.90
680;DHT22;322;48.846;9.230;2023-06-22T02:26:42;18.90;99.90
680;DHT22;322;48.846;9.230;2023-06-22T02:29:12;18.80;99.90
680;DHT22;322;48.846;9.230;2023-06-22T02:31:40;18.70;99.90
680;DHT22;322;48.846;9.230;2023-06-22T02:34:09;18.70;99.90
680;DHT22;322;48.846;9.230;2023-06-22T02:36:45;18.60;99.90
680;DHT22;322;48.846;9.230;2023-06-22T02:39:19;18.50;99.90
680;DHT22;322;48.846;9.230;2023-06-22T02:41:48;18.50;99.90
680;DHT22;322;48.846;9.230;2023-06-22T02:44:17;18.60;99.90
680;DHT22;322;48.846;9.230;2023-06-22T02:46:45;18.50;99.90
680;DHT22;322;48.846;9.230;2023-06-22T02:49:15;18.40;99.90
680;DHT22;322;48.846;9.230;2023-06-22T02:51:46;18.40;99.90
680;DHT22;322;48.846;9.230;2023-06-22T02:54:14;18.30;99.90
680;DHT22;322;48.846;9.230;2023-06-22T02:56:43;18.20;99.90
680;DHT22;322;48.846;9.230;2023-06-22T02:59:11;18.30;99.90
680;DHT22;322;48.846;9.230;2023-06-22T03:01:39;18.40;99.90
680;DHT22;322;48.846;9.230;2023-06-22T03:04:07;18.30;99.90
680;DHT22;322;48.846;9.230;2023-06-22T03:06:37;18.30;99.90
680;DHT22;322;48.846;9.230;2023-06-22T03:09:07;18.30;99.90
680;DHT22;322;48.846;9.230;2023-06-22T03:11:35;18.20;99.90
680;DHT22;322;48.846;9.230;2023-06-22T03:14:03;18.10;99.90
680;DHT22;322;48.846;9.230;2023-06-22T03:16:31;18.20;99.90
680;DHT22;322;48.846;9.230;2023-06-22T03:19:00;18.20;99.90
680;DHT22;322;48.846;9.230;2023-06-22T03:21:28;18.20;99.90
680;DHT22;322;48.846;9.230;2023-06-22T03:23:58;18.20;99.90
680;DHT22;322;48.846;9.230;2023-06-22T03:26:26;18.30;99.90
680;DHT22;322;48.846;9.230;2023-06-22T03:28:54;18.30;99.90
680;DHT22;322;48.846;9.230;2023-06-22T03:31:22;18.20;99.90
680;DHT22;322;48.846;9.230;2023-06-22T03:33:50;18.20;99.90
680;DHT22;322;48.846;9.230;2023-06-22T03:36:19;18.20;99.90
680;DHT22;322;48.846;9.230;2023-06-22T03:38:48;18.20;99.90
680;DHT22;322;48.846;9.230;2023-06-22T03:41:18;18.20;99.90
680;DHT22;322;48.846;9.230;2023-06-22T03:43:46;18.10;99.90
680;DHT22;322;48.846;9.230;2023-06-22T03:46:14;18.10;99.90
680;DHT22;322;48.846;9.230;2023-06-22T03:48:42;18.00;99.90
680;DHT22;322;48.846;9.230;2023-06-22T03:51:10;18.00;99.90
680;DHT22;322;48.846;9.230;2023-06-22T03:53:38;18.00;99.90
680;DHT22;322;48.846;9.230;2023-06-22T03:56:06;18.10;99.90
680;DHT22;322;48.846;9.230;2023-06-22T03:58:36;18.00;99.90
680;DHT22;322;48.846;9.230;2023-06-22T04:01:09;18.00;99.90
680;DHT22;322;48.846;9.230;2023-06-22T04:03:38;18.00;99.90
680;DHT22;322;48.846;9.230;2023-06-22T04:06:07;18.00;99.90
680;DHT22;322;48.846;9.230;2023-06-22T04:08:35;18.10;99.90
680;DHT22;322;48.846;9.230;2023-06-22T04:11:03;18.20;99.90
680;DHT22;322;48.846;9.230;2023-06-22T04:13:31;18.40;99.90
680;DHT22;322;48.846;9.230;2023-06-22T04:16:01;18.40;99.90
680;DHT22;322;48.846;9.230;2023-06-22T04:18:29;18.60;99.90
680;DHT22;322;48.846;9.230;2023-06-22T04:20:57;18.60;99.90
680;DHT22;322;48.846;9.230;2023-06-22T04:23:25;18.60;99.90
680;DHT22;322;48.846;9.230;2023-06-22T04:25:53;18.70;99.90
680;DHT22;322;48.846;9.230;2023-06-22T04:28:23;18.80;99.90
680;DHT22;322;48.846;9.230;2023-06-22T04:30:53;18.90;99.90
680;DHT22;322;48.846;9.230;2023-06-22T04:33:26;19.00;99.90
680;DHT22;322;48.846;9.230;2023-06-22T04:35:54;19.10;99.90
680;DHT22;322;48.846;9.230;2023-06-22T04:38:24;19.20;99.90
680;DHT22;322;48.846;9.230;2023-06-22T04:40:52;19.20;99.90
680;DHT22;322;48.846;9.230;2023-06-22T04:43:20;19.20;99.90
680;DHT22;322;48.846;9.230;2023-06-22T04:45:48;19.20;99.90
680;DHT22;322;48.846;9.230;2023-06-22T04:48:19;19.30;99.90
680;DHT22;322;48.846;9.230;2023-06-22T04:50:48;19.40;99.90
680;DHT22;322;48.846;9.230;2023-06-22T04:53:16;19.50;99.90
680;DHT22;322;48.846;9.230;2023-06-22T04:55:45;19.50;99.90
680;DHT22;322;48.846;9.230;2023-06-22T04:58:15;19.60;99.90
680;DHT22;322;48.846;9.230;2023-06-22T05:00:46;19.60;99.90
680;DHT22;322;48.846;9.230;2023-06-22T05:03:17;19.70;99.90
680;DHT22;322;48.846;9.230;2023-06-22T05:05:48;19.70;99.90
680;DHT22;322;48.846;9.230;2023-06-22T05:08:16;19.90;99.90
680;DHT22;322;48.846;9.230;2023-06-22T05:10:44;20.00;99.90
680;DHT22;322;48.846;9.230;2023-06-22T05:13:31;20.20;99.90
680;DHT22;322;48.846;9.230;2023-06-22T05:15:59;20.20;99.90
680;DHT22;322;48.846;9.230;2023-06-22T05:18:30;20.30;99.90
680;DHT22;322;48.846;9.230;2023-06-22T05:21:00;20.30;99.90
680;DHT22;322;48.846;9.230;2023-06-22T05:23:28;20.40;99.90
680;DHT22;322;48.846;9.230;2023-06-22T05:25:56;20.50;99.90
680;DHT22;322;48.846;9.230;2023-06-22T05:28:25;20.60;99.90
680;DHT22;322;48.846;9.230;2023-06-22T05:30:53;20.70;99.90
680;DHT22;322;48.846;9.230;2023-06-22T05:33:21;20.90;99.90
680;DHT22;322;48.846;9.230;2023-06-22T05:35:50;21.00;99.90
680;DHT22;322;48.846;9.230;2023-06-22T05:38:19;21.10;99.90
680;DHT22;322;48.846;9.230;2023-06-22T05:40:47;21.20;99.90
680;DHT22;322;48.846;9.230;2023-06-22T05:43:15;21.40;99.90
680;DHT22;322;48.846;9.230;2023-06-22T05:45:43;21.50;99.90
680;DHT22;322;48.846;9.230;2023-06-22T05:48:11;21.60;99.90
680;DHT22;322;48.846;9.230;2023-06-22T05:50:39;21.80;99.90
680;DHT22;322;48.846;9.230;2023-06-22T05:53:08;21.80;99.90
680;DHT22;322;48.846;9.230;2023-06-22T05:55:37;21.90;99.90
680;DHT22;322;48.846;9.230;2023-06-22T05:58:05;21.90;99.90
680;DHT22;322;48.846;9.230;2023-06-22T06:00:33;21.80;99.90
680;DHT22;322;48.846;9.230;2023-06-22T06:03:01;21.80;99.90
680;DHT22;322;48.846;9.230;2023-06-22T06:05:31;21.80;99.90
680;DHT22;322;48.846;9.230;2023-06-22T06:07:59;21.70;99.90
680;DHT22;322;48.846;9.230;2023-06-22T06:10:27;21.70;99.90
680;DHT22;322;48.846;9.230;2023-06-22T06:12:58;21.60;99.90
680;DHT22;322;48.846;9.230;2023-06-22T06:15:29;21.60;99.90
680;DHT22;322;48.846;9.230;2023-06-22T06:17:57;21.70;99.90
680;DHT22;322;48.846;9.230;2023-06-22T06:20:26;21.60;99.90
680;DHT22;322;48.846;9.230;2023-06-22T06:22:56;21.70;99.90
680;DHT22;322;48.846;9.230;2023-06-22T06:25:24;21.70;99.90
680;DHT22;322;48.846;9.230;2023-06-22T06:27:52;21.70;99.90
680;DHT22;322;48.846;9.230;2023-06-22T06:30:23;21.80;99.90
680;DHT22;322;48.846;9.230;2023-06-22T06:32:54;21.90;99.90
680;DHT22;322;48.846;9.230;2023-06-22T06:35:22;22.10;99.90
680;DHT22;322;48.846;9.230;2023-06-22T06:37:51;22.20;99.90
680;DHT22;322;48.846;9.230;2023-06-22T06:40:19;22.40;99.90
680;DHT22;322;48.846;9.230;2023-06-22T06:42:48;22.60;99.90
680;DHT22;322;48.846;9.230;2023-06-22T06:45:18;22.80;99.90
680;DHT22;322;48.846;9.230;2023-06-22T06:47:47;22.80;99.90
680;DHT22;322;48.846;9.230;2023-06-22T06:50:16;23.00;99.90
680;DHT22;322;48.846;9.230;2023-06-22T06:52:44;23.00;99.90
680;DHT22;322;48.846;9.230;2023-06-22T06:55:12;23.10;99.90
680;DHT22;322;48.846;9.230;2023-06-22T06:57:42;23.30;99.90
680;DHT22;322;48.846;9.230;2023-06-22T07:00:12;23.40;99.90
680;DHT22;322;48.846;9.230;2023-06-22T07:02:42;23.50;99.90
680;DHT22;322;48.846;9.230;2023-06-22T07:05:12;23.60;99.90
680;DHT22;322;48.846;9.230;2023-06-22T07:07:40;23.70;99.90
680;DHT22;322;48.846;9.230;2023-06-22T07:10:10;23.80;99.90
680;DHT22;322;48.846;9.230;2023-06-22T07:12:38;23.80;99.90
680;DHT22;322;48.846;9.230;2023-06-22T07:15:08;23.90;99.90
680;DHT22;322;48.846;9.230;2023-06-22T07:17:37;24.00;99.90
680;DHT22;322;48.846;9.230;2023-06-22T07:20:06;24.10;99.90
680;DHT22;322;48.846;9.230;2023-06-22T07:22:38;24.20;99.90
680;DHT22;322;48.846;9.230;2023-06-22T07:25:07;24.40;99.90
680;DHT22;322;48.846;9.230;2023-06-22T07:27:37;24.50;99.90
680;DHT22;322;48.846;9.230;2023-06-22T07:30:07;24.70;99.90
680;DHT22;322;48.846;9.230;2023-06-22T07:32:36;24.80;99.20
680;DHT22;322;48.846;9.230;2023-06-22T07:35:05;25.00;98.80
680;DHT22;322;48.846;9.230;2023-06-22T07:37:33;25.10;98.50
680;DHT22;322;48.846;9.230;2023-06-22T07:40:04;25.30;96.90
680;DHT22;322;48.846;9.230;2023-06-22T07:42:33;25.40;97.30
680;DHT22;322;48.846;9.230;2023-06-22T07:45:02;25.60;95.30
680;DHT22;322;48.846;9.230;2023-06-22T07:47:30;25.70;95.40
680;DHT22;322;48.846;9.230;2023-06-22T07:50:03;25.80;94.50
680;DHT22;322;48.846;9.230;2023-06-22T07:52:32;26.00;95.20
680;DHT22;322;48.846;9.230;2023-06-22T07:55:00;26.20;93.30
680;DHT22;322;48.846;9.230;2023-06-22T07:57:30;26.40;92.70
680;DHT22;322;48.846;9.230;2023-06-22T08:00:02;26.50;93.00
680;DHT22;322;48.846;9.230;2023-06-22T08:02:35;26.70;92.00
680;DHT22;322;48.846;9.230;2023-06-22T08:05:03;26.80;91.90
680;DHT22;322;48.846;9.230;2023-06-22T08:07:53;27.00;91.20
680;DHT22;322;48.846;9.230;2023-06-22T08:10:21;27.10;87.50
680;DHT22;322;48.846;9.230;2023-06-22T08:12:51;27.20;90.00
680;DHT22;322;48.846;9.230;2023-06-22T08:15:19;27.30;90.30
680;DHT22;322;48.846;9.230;2023-06-22T08:17:48;27.40;87.80
680;DHT22;322;48.846;9.230;2023-06-22T08:20:19;27.40;86.00
680;DHT22;322;48.846;9.230;2023-06-22T08:22:47;27.50;86.50
680;DHT22;322;48.846;9.230;2023-06-22T08:25:15;27.60;88.20
680;DHT22;322;48.846;9.230;2023-06-22T08:27:45;27.80;84.70
680;DHT22;322;48.846;9.230;2023-06-22T08:30:16;28.20;83.00
680;DHT22;322;48.846;9.230;2023-06-22T08:32:45;28.70;80.20
680;DHT22;322;48.846;9.230;2023-06-22T08:35:13;29.00;74.30
680;DHT22;322;48.846;9.230;2023-06-22T08:37:41;29.30;74.70
680;DHT22;322;48.846;9.230;2023-06-22T08:40:10;29.50;69.90
680;DHT22;322;48.846;9.230;2023-06-22T08:42:40;29.50;70.70
680;DHT22;322;48.846;9.230;2023-06-22T08:45:09;29.70;70.60
680;DHT22;322;48.846;9.230;2023-06-22T08:47:39;29.60;68.90
680;DHT22;322;48.846;9.230;2023-06-22T08:50:08;29.50;70.10
680;DHT22;322;48.846;9.230;2023-06-22T08:52:38;29.70;75.00
680;DHT22;322;48.846;9.230;2023-06-22T08:55:08;29.90;72.90
680;DHT22;322;48.846;9.230;2023-06-22T08:57:37;30.20;70.60
680;DHT22;322;48.846;9.230;2023-06-22T09:00:07;30.70;67.40
680;DHT22;322;48.846;9.230;2023-06-22T09:02:46;30.80;66.20
680;DHT22;322;48.846;9.230;2023-06-22T09:05:15;31.20;66.30
680;DHT22;322;48.846;9.230;2023-06-22T09:07:44;31.50;65.90
680;DHT22;322;48.846;9.230;2023-06-22T09:10:13;31.60;60.30
680;DHT22;322;48.846;9.230;2023-06-22T09:12:43;31.70;62.20
680;DHT22;322;48.846;9.230;2023-06-22T09:15:11;31.50;60.20
680;DHT22;322;48.846;9.230;2023-06-22T09:17:55;31.30;63.20
680;DHT22;322;48.846;9.230;2023-06-22T09:20:24;31.50;59.40
680;DHT22;322;48.846;9.230;2023-06-22T09:22:53;31.10;60.00
680;DHT22;322;48.846;9.230;2023-06-22T09:25:21;30.70;61.40
680;DHT22;322;48.846;9.230;2023-06-22T09:27:49;30.30;63.90
680;DHT22;322;48.846;9.230;2023-06-22T09:30:17;30.10;65.40
680;DHT22;322;48.846;9.230;2023-06-22T09:32:45;30.20;66.20
680;DHT22;322;48.846;9.230;2023-06-22T09:35:14;30.10;69.50
680;DHT22;322;48.846;9.230;2023-06-22T09:37:42;30.20;64.70
680;DHT22;322;48.846;9.230;2023-06-22T09:40:12;30.20;63.10
680;DHT22;322;48.846;9.230;2023-06-22T09:42:42;30.10;64.00
680;DHT22;322;48.846;9.230;2023-06-22T09:45:10;30.20;65.00
680;DHT22;322;48.846;9.230;2023-06-22T09:47:38;30.30;64.10
680;DHT22;322;48.846;9.230;2023-06-22T09:50:07;30.50;66.10
680;DHT22;322;48.846;9.230;2023-06-22T09:52:37;30.90;65.60
680;DHT22;322;48.846;9.230;2023-06-22T09:55:08;31.30;61.80
680;DHT22;322;48.846;9.230;2023-06-22T09:57:36;31.20;59.30
680;DHT22;322;48.846;9.230;2023-06-22T10:00:05;30.90;64.10
680;DHT22;322;48.846;9.230;2023-06-22T10:02:38;31.20;60.70
680;DHT22;322;48.846;9.230;2023-06-22T10:05:07;31.40;60.40
680;DHT22;322;48.846;9.230;2023-06-22T10:07:37;31.90;62.60
680;DHT22;322;48.846;9.230;2023-06-22T10:10:09;32.50;62.10
680;DHT22;322;48.846;9.230;2023-06-22T10:12:42;33.20;58.10
680;DHT22;322;48.846;9.230;2023-06-22T10:15:10;33.80;58.40
680;DHT22;322;48.846;9.230;2023-06-22T10:17:39;34.10;54.90
680;DHT22;322;48.846;9.230;2023-06-22T10:20:08;34.30;52.30
680;DHT22;322;48.846;9.230;2023-06-22T10:22:42;33.80;52.90
680;DHT22;322;48.846;9.230;2023-06-22T10:25:10;33.70;55.50
680;DHT22;322;48.846;9.230;2023-06-22T10:27:39;33.70;55.50
680;DHT22;322;48.846;9.230;2023-06-22T10:30:09;33.70;55.10
680;DHT22;322;48.846;9.230;2023-06-22T10:32:38;34.10;53.60
680;DHT22;322;48.846;9.230;2023-06-22T10:35:07;34.40;54.50
680;DHT22;322;48.846;9.230;2023-06-22T10:37:35;34.80;54.00
680;DHT22;322;48.846;9.230;2023-06-22T10:40:06;35.20;51.80
680;DHT22;322;48.846;9.230;2023-06-22T10:42:35;35.40;49.50
680;DHT22;322;48.846;9.230;2023-06-22T10:45:03;35.20;50.20
680;DHT22;322;48.846;9.230;2023-06-22T10:47:31;35.40;53.50
680;DHT22;322;48.846;9.230;2023-06-22T10:49:59;35.60;48.90
680;DHT22;322;48.846;9.230;2023-06-22T10:52:27;36.00;47.50
680;DHT22;322;48.846;9.230;2023-06-22T10:54:55;35.50;47.50
680;DHT22;322;48.846;9.230;2023-06-22T10:57:25;35.00;48.80
680;DHT22;322;48.846;9.230;2023-06-22T10:59:53;35.00;51.60
680;DHT22;322;48.846;9.230;2023-06-22T11:02:21;35.30;54.80
680;DHT22;322;48.846;9.230;2023-06-22T11:04:49;35.60;53.00
680;DHT22;322;48.846;9.230;2023-06-22T11:07:17;35.70;51.20
680;DHT22;322;48.846;9.230;2023-06-22T11:09:45;35.90;51.00
680;DHT22;322;48.846;9.230;2023-06-22T11:12:13;35.90;51.80
680;DHT22;322;48.846;9.230;2023-06-22T11:14:43;35.80;49.20
680;DHT22;322;48.846;9.230;2023-06-22T11:17:11;35.60;50.50
680;DHT22;322;48.846;9.230;2023-06-22T11:19:39;35.60;51.40
680;DHT22;322;48.846;9.230;2023-06-22T11:22:07;35.50;54.30
680;DHT22;322;48.846;9.230;2023-06-22T11:24:35;35.50;51.20
680;DHT22;322;48.846;9.230;2023-06-22T11:27:03;35.50;50.00
680;DHT22;322;48.846;9.230;2023-06-22T11:29:32;35.40;49.10
680;DHT22;322;48.846;9.230;2023-06-22T11:32:22;35.20;53.00
680;DHT22;322;48.846;9.230;2023-06-22T11:34:50;35.00;48.80
680;DHT22;322;48.846;9.230;2023-06-22T11:37:18;34.50;49.30
680;DHT22;322;48.846;9.230;2023-06-22T11:39:46;34.20;51.00
680;DHT22;322;48.846;9.230;2023-06-22T11:42:18;33.80;50.50
680;DHT22;322;48.846;9.230;2023-06-22T11:44:46;33.50;52.10
680;DHT22;322;48.846;9.230;2023-06-22T11:47:14;33.70;54.40
680;DHT22;322;48.846;9.230;2023-06-22T11:49:44;34.20;51.20
680;DHT22;322;48.846;9.230;2023-06-22T11:52:12;34.40;50.60
680;DHT22;322;48.846;9.230;2023-06-22T11:54:40;34.40;49.30
680;DHT22;322;48.846;9.230;2023-06-22T11:57:08;34.40;50.30
680;DHT22;322;48.846;9.230;2023-06-22T11:59:36;34.60;53.40
680;DHT22;322;48.846;9.230;2023-06-22T12:02:04;34.80;48.60
680;DHT22;322;48.846;9.230;2023-06-22T12:04:34;34.80;49.80
680;DHT22;322;48.846;9.230;2023-06-22T12:07:04;34.70;52.20
680;DHT22;322;48.846;9.230;2023-06-22T12:09:32;34.80;52.30
680;DHT22;322;48.846;9.230;2023-06-22T12:12:00;34.80;50.60
680;DHT22;322;48.846;9.230;2023-06-22T12:14:28;34.70;50.60
680;DHT22;322;48.846;9.230;2023-06-22T12:16:58;34.50;50.90
680;DHT22;322;48.846;9.230;2023-06-22T12:19:26;34.30;50.90
680;DHT22;322;48.846;9.230;2023-06-22T12:21:54;34.10;51.40
680;DHT22;322;48.846;9.230;2023-06-22T12:24:23;34.10;53.90
680;DHT22;322;48.846;9.230;2023-06-22T12:26:52;34.00;53.50
680;DHT22;322;48.846;9.230;2023-06-22T12:29:22;33.90;53.10
680;DHT22;322;48.846;9.230;2023-06-22T12:31:50;33.90;54.00
680;DHT22;322;48.846;9.230;2023-06-22T12:34:18;33.80;50.70
680;DHT22;322;48.846;9.230;2023-06-22T12:36:46;33.70;51.00
680;DHT22;322;48.846;9.230;2023-06-22T12:39:15;34.00;51.80
680;DHT22;322;48.846;9.230;2023-06-22T12:41:44;34.40;50.70
680;DHT22;322;48.846;9.230;2023-06-22T12:44:12;34.50;51.10
680;DHT22;322;48.846;9.230;2023-06-22T12:46:40;34.40;53.20
680;DHT22;322;48.846;9.230;2023-06-22T12:49:08;33.40;53.00
680;DHT22;322;48.846;9.230;2023-06-22T12:51:40;32.90;55.50
680;DHT22;322;48.846;9.230;2023-06-22T12:54:09;32.60;54.80
680;DHT22;322;48.846;9.230;2023-06-22T12:56:37;32.40;55.60
680;DHT22;322;48.846;9.230;2023-06-22T12:59:07;32.40;57.30
680;DHT22;322;48.846;9.230;2023-06-22T13:01:35;32.40;57.60
680;DHT22;322;48.846;9.230;2023-06-22T13:04:03;32.50;56.00
680;DHT22;322;48.846;9.230;2023-06-22T13:06:32;32.70;55.40
680;DHT22;322;48.846;9.230;2023-06-22T13:09:00;32.70;57.20
680;DHT22;322;48.846;9.230;2023-06-22T13:11:31;32.70;55.90
680;DHT22;322;48.846;9.230;2023-06-22T13:13:59;32.60;55.40
680;DHT22;322;48.846;9.230;2023-06-22T13:16:28;32.60;54.90
680;DHT22;322;48.846;9.230;2023-06-22T13:18:56;32.70;53.80
680;DHT22;322;48.846;9.230;2023-06-22T13:21:24;32.40;53.20
680;DHT22;322;48.846;9.230;2023-06-22T13:23:52;32.20;54.80
680;DHT22;322;48.846;9.230;2023-06-22T13:26:21;32.20;56.90
680;DHT22;322;48.846;9.230;2023-06-22T13:28:49;32.30;56.80
680;DHT22;322;48.846;9.230;2023-06-22T13:31:17;32.60;54.20
680;DHT22;322;48.846;9.230;2023-06-22T13:33:46;32.90;53.60
680;DHT22;322;48.846;9.230;2023-06-22T13:36:15;33.40;53.90
680;DHT22;322;48.846;9.230;2023-06-22T13:38:44;33.90;54.50
680;DHT22;322;48.846;9.230;2023-06-22T13:41:12;34.30;52.00
680;DHT22;322;48.846;9.230;2023-06-22T13:43:40;34.60;50.50
680;DHT22;322;48.846;9.230;2023-06-22T13:46:08;34.40;51.20
680;DHT22;322;48.846;9.230;2023-06-22T13:48:36;34.40;52.70
680;DHT22;322;48.846;9.230;2023-06-22T13:51:05;34.40;53.00
680;DHT22;322;48.846;9.230;2023-06-22T13:53:33;34.40;55.80
680;DHT22;322;48.846;9.230;2023-06-22T13:56:01;34.60;52.60
680;DHT22;322;48.846;9.230;2023-06-22T13:58:29;34.70;54.90
680;DHT22;322;48.846;9.230;2023-06-22T14:00:57;34.90;53.50
680;DHT22;322;48.846;9.230;2023-06-22T14:03:27;35.00;50.40
680;DHT22;322;48.846;9.230;2023-06-22T14:05:55;34.60;51.90
680;DHT22;322;48.846;9.230;2023-06-22T14:08:26;34.50;50.10
680;DHT22;322;48.846;9.230;2023-06-22T14:10:57;34.40;50.20
680;DHT22;322;48.846;9.230;2023-06-22T14:13:25;34.30;51.80
680;DHT22;322;48.846;9.230;2023-06-22T14:15:53;34.50;53.80
680;DHT22;322;48.846;9.230;2023-06-22T14:18:21;34.70;53.50
680;DHT22;322;48.846;9.230;2023-06-22T14:20:50;34.80;54.90
680;DHT22;322;48.846;9.230;2023-06-22T14:23:18;35.10;53.90
680;DHT22;322;48.846;9.230;2023-06-22T14:25:47;35.40;52.30
680;DHT22;322;48.846;9.230;2023-06-22T14:28:15;36.30;48.60
680;DHT22;322;48.846;9.230;2023-06-22T14:30:44;37.50;47.20
680;DHT22;322;48.846;9.230;2023-06-22T14:33:12;38.50;44.40
680;DHT22;322;48.846;9.230;2023-06-22T14:35:40;38.80;44.30
680;DHT22;322;48.846;9.230;2023-06-22T14:38:08;37.70;41.20
680;DHT22;322;48.846;9.230;2023-06-22T14:40:36;36.50;43.90
680;DHT22;322;48.846;9.230;2023-06-22T14:43:25;35.80;43.80
680;DHT22;322;48.846;9.230;2023-06-22T14:45:54;35.10;45.30
680;DHT22;322;48.846;9.230;2023-06-22T14:48:22;34.70;46.80
680;DHT22;322;48.846;9.230;2023-06-22T14:50:50;34.70;46.90
680;DHT22;322;48.846;9.230;2023-06-22T14:53:18;35.20;46.30
680;DHT22;322;48.846;9.230;2023-06-22T14:55:46;35.80;45.80
680;DHT22;322;48.846;9.230;2023-06-22T14:58:14;36.20;45.70
680;DHT22;322;48.846;9.230;2023-06-22T15:00:43;36.30;44.50
680;DHT22;322;48.846;9.230;2023-06-22T15:03:11;36.80;44.90
680;DHT22;322;48.846;9.230;2023-06-22T15:05:46;37.60;41.60
680;DHT22;322;48.846;9.230;2023-06-22T15:08:14;37.20;40.80
680;DHT22;322;48.846;9.230;2023-06-22T15:10:45;36.70;41.30
680;DHT22;322;48.846;9.230;2023-06-22T15:13:13;36.30;42.40
680;DHT22;322;48.846;9.230;2023-06-22T15:15:42;35.80;39.20
680;DHT22;322;48.846;9.230;2023-06-22T15:18:10;35.50;37.40
680;DHT22;322;48.846;9.230;2023-06-22T15:20:38;35.10;36.00
680;DHT22;322;48.846;9.230;2023-06-22T15:23:07;35.00;35.80
680;DHT22;322;48.846;9.230;2023-06-22T15:25:36;35.10;35.20
680;DHT22;322;48.846;9.230;2023-06-22T15:28:06;34.90;35.50
680;DHT22;322;48.846;9.230;2023-06-22T15:30:34;35.20;34.70
680;DHT22;322;48.846;9.230;2023-06-22T15:33:04;35.60;35.00
680;DHT22;322;48.846;9.230;2023-06-22T15:35:32;35.80;34.60
680;DHT22;322;48.846;9.230;2023-06-22T15:38:00;36.50;34.00
680;DHT22;322;48.846;9.230;2023-06-22T15:40:29;36.70;33.90
680;DHT22;322;48.846;9.230;2023-06-22T15:42:58;36.10;32.30
680;DHT22;322;48.846;9.230;2023-06-22T15:45:26;35.00;33.50
680;DHT22;322;48.846;9.230;2023-06-22T15:47:54;34.50;35.60
680;DHT22;322;48.846;9.230;2023-06-22T15:50:24;34.20;35.70
680;DHT22;322;48.846;9.230;2023-06-22T15:52:52;34.00;36.10
680;DHT22;322;48.846;9.230;2023-06-22T15:55:20;33.80;36.50
680;DHT22;322;48.846;9.230;2023-06-22T15:57:48;33.70;36.70
680;DHT22;322;48.846;9.230;2023-06-22T16:00:17;34.20;35.90
680;DHT22;322;48.846;9.230;2023-06-22T16:02:46;34.40;35.20
680;DHT22;322;48.846;9.230;2023-06-22T16:05:15;34.00;36.30
680;DHT22;322;48.846;9.230;2023-06-22T16:07:44;33.70;37.60
680;DHT22;322;48.846;9.230;2023-06-22T16:10:12;33.30;37.90
680;DHT22;322;48.846;9.230;2023-06-22T16:12:43;32.80;38.70
680;DHT22;322;48.846;9.230;2023-06-22T16:15:11;32.40;39.20
680;DHT22;322;48.846;9.230;2023-06-22T16:17:40;32.20;40.00
680;DHT22;322;48.846;9.230;2023-06-22T16:20:09;32.00;40.40
680;DHT22;322;48.846;9.230;2023-06-22T16:22:38;31.90;41.40
680;DHT22;322;48.846;9.230;2023-06-22T16:25:08;31.70;40.90
680;DHT22;322;48.846;9.230;2023-06-22T16:27:36;31.50;41.90
680;DHT22;322;48.846;9.230;2023-06-22T16:30:06;31.50;43.20
680;DHT22;322;48.846;9.230;2023-06-22T16:32:34;31.50;41.50
680;DHT22;322;48.846;9.230;2023-06-22T16:35:03;31.40;41.10
680;DHT22;322;48.846;9.230;2023-06-22T16:37:31;31.30;41.70
680;DHT22;322;48.846;9.230;2023-06-22T16:39:59;31.30;41.20
680;DHT22;322;48.846;9.230;2023-06-22T16:42:28;31.10;40.50
680;DHT22;322;48.846;9.230;2023-06-22T16:44:56;30.90;40.70
680;DHT22;322;48.846;9.230;2023-06-22T16:47:24;30.80;41.00